Time;durP1;ratioP1;P1;durP2;ratioP2;P2;SDS_P1;SDS_P2;PMS_P1;PMS_P2;Temp;Humidity;BMP_temperature;BMP_pressure;BME280_temperature;BME280_humidity;BME280_pressure;Samples;Min_cycle;Max_cycle;Signal;HPM_P1;HPM_P2
2022/05/16 00:01:11;;;;;;;13.32;6.75;;;12.10;99.90;;;;;;5053466;28;20051;-64
2022/05/16 00:03:37;;;;;;;14.43;7.28;;;12.10;99.90;;;;;;5071848;28;20040;-64
2022/05/16 00:06:03;;;;;;;16.15;6.35;;;12.50;99.90;;;;;;5036431;28;20036;-64
2022/05/16 00:08:29;;;;;;;11.27;6.57;;;12.10;99.90;;;;;;5053655;28;20179;-64
2022/05/16 00:10:56;;;;;;;12.18;6.57;;;12.10;99.90;;;;;;5053771;28;20033;-64
2022/05/16 00:13:22;;;;;;;11.52;6.60;;;11.40;99.90;;;;;;5052956;28;20485;-64
2022/05/16 00:15:48;;;;;;;15.73;6.85;;;12.30;99.90;;;;;;5054067;28;20043;-64
2022/05/16 00:18:13;;;;;;;12.40;6.80;;;12.20;99.90;;;;;;5053666;28;20509;-64
2022/05/16 00:20:39;;;;;;;11.95;6.72;;;12.40;99.90;;;;;;5070977;28;20459;-64
2022/05/16 00:23:05;;;;;;;12.27;6.15;;;12.10;99.90;;;;;;5071453;28;20044;-64
2022/05/16 00:25:31;;;;;;;12.43;6.20;;;12.70;99.90;;;;;;5053650;28;20098;-64
2022/05/16 00:27:56;;;;;;;15.98;7.78;;;12.10;99.90;;;;;;5053150;28;20093;-64
2022/05/16 00:30:22;;;;;;;15.18;5.60;;;11.90;99.90;;;;;;5071476;28;20120;-64
2022/05/16 00:32:48;;;;;;;15.57;7.03;;;12.40;99.90;;;;;;5053791;28;20075;-64
2022/05/16 00:35:16;;;;;;;12.15;6.40;;;12.70;99.90;;;;;;5052588;28;20051;-64
2022/05/16 00:37:41;;;;;;;11.27;5.07;;;12.20;99.90;;;;;;5053709;28;20501;-64
2022/05/16 00:40:09;;;;;;;11.50;6.20;;;12.20;99.90;;;;;;5071116;28;20074;-64
2022/05/16 00:42:36;;;;;;;10.95;5.53;;;;;;;;;;5053115;28;20080;-64
2022/05/16 00:45:02;;;;;;;14.25;5.85;;;12.10;99.90;;;;;;5036714;28;20041;-64
2022/05/16 00:47:27;;;;;;;11.02;6.43;;;12.00;99.90;;;;;;5070603;28;20036;-64
2022/05/16 00:49:54;;;;;;;13.65;6.25;;;12.10;99.90;;;;;;5071541;28;20043;-64
2022/05/16 00:52:22;;;;;;;12.77;6.40;;;12.10;99.90;;;;;;5073046;28;20397;-64
2022/05/16 00:54:57;;;;;;;11.25;5.80;;;12.00;99.90;;;;;;5074534;28;20069;-63
2022/05/16 00:57:32;;;;;;;13.80;6.05;;;12.20;99.90;;;;;;5056984;28;20087;-63
2022/05/16 01:00:10;;;;;;;10.25;5.95;;;12.20;99.90;;;;;;5040523;28;20040;-63
2022/05/16 01:05:23;;;;;;;15.13;5.93;;;12.20;99.90;;;;;;5074567;28;20102;-64
2022/05/16 01:07:49;;;;;;;12.45;6.05;;;12.00;99.90;;;;;;5056625;28;20048;-64
2022/05/16 01:10:19;;;;;;;12.93;6.60;;;12.30;99.90;;;;;;5055893;28;20409;-64
2022/05/16 01:12:47;;;;;;;9.73;5.72;;;12.30;99.90;;;;;;5075145;28;20037;-64
2022/05/16 01:15:40;;;;;;;13.95;6.03;;;12.60;99.90;;;;;;5074143;28;20481;-63
2022/05/16 01:18:07;;;;;;;10.38;5.55;;;12.40;99.90;;;;;;5056392;28;20048;-64
2022/05/16 01:20:42;;;;;;;12.20;6.28;;;12.30;99.90;;;;;;5074266;28;20068;-64
2022/05/16 01:23:08;;;;;;;10.35;6.70;;;12.30;99.90;;;;;;5055369;28;20063;-64
2022/05/16 01:25:34;;;;;;;10.48;6.13;;;12.30;99.90;;;;;;5056593;28;20511;-64
2022/05/16 01:28:04;;;;;;;10.85;5.43;;;12.20;99.90;;;;;;5056535;28;20052;-64
2022/05/16 01:30:51;;;;;;;11.10;7.10;;;12.30;99.90;;;;;;5073719;28;20119;-64
2022/05/16 01:33:18;;;;;;;16.80;6.78;;;12.30;99.90;;;;;;5056087;28;20086;-64
2022/05/16 01:35:44;;;;;;;12.95;5.75;;;12.40;99.90;;;;;;5039839;28;20040;-63
2022/05/16 01:38:30;;;;;;;11.25;5.95;;;12.40;99.90;;;;;;5055230;28;20397;-63
2022/05/16 01:40:56;;;;;;;;;;;12.20;99.90;;;;;;5056843;28;20048;-64
2022/05/16 01:43:24;;;;;;;10.20;5.82;;;12.20;99.90;;;;;;5073964;28;19917;-64
2022/05/16 01:45:50;;;;;;;12.13;6.50;;;12.40;99.90;;;;;;5055126;28;20043;-64
2022/05/16 01:48:18;;;;;;;9.95;5.82;;;12.40;99.90;;;;;;5055559;28;20087;-64
2022/05/16 01:50:45;;;;;;;11.07;5.35;;;12.90;99.90;;;;;;5073936;28;20119;-64
2022/05/16 01:53:12;;;;;;;11.43;5.47;;;12.70;99.90;;;;;;5073494;28;20044;-64
2022/05/16 01:55:37;;;;;;;11.27;5.55;;;12.70;99.90;;;;;;5074062;28;20048;-64
2022/05/16 01:58:04;;;;;;;11.65;5.40;;;12.50;99.90;;;;;;5072873;28;20036;-63
2022/05/16 02:00:31;;;;;;;9.32;5.35;;;12.20;99.90;;;;;;5039451;28;20385;-64
2022/05/16 02:02:58;;;;;;;10.98;6.10;;;12.70;99.90;;;;;;5073686;28;20044;-64
2022/05/16 02:05:24;;;;;;;8.48;5.40;;;13.10;99.90;;;;;;5072567;28;20392;-64
2022/05/16 02:07:50;;;;;;;9.98;5.13;;;12.30;99.90;;;;;;5073565;28;20040;-64
2022/05/16 02:10:19;;;;;;;10.65;5.30;;;12.10;99.90;;;;;;5073429;28;20381;-64
2022/05/16 02:12:45;;;;;;;8.43;5.10;;;12.40;99.90;;;;;;5038781;28;20440;-64
2022/05/16 02:15:14;;;;;;;10.32;4.70;;;12.70;99.90;;;;;;5055395;28;20051;-64
2022/05/16 02:17:40;;;;;;;12.52;5.15;;;12.20;99.90;;;;;;5073359;28;20478;-64
2022/05/16 02:20:06;;;;;;;8.50;5.00;;;12.30;99.90;;;;;;5071939;28;20052;-64
2022/05/16 02:25:16;;;;;;;10.18;5.10;;;12.20;99.90;;;;;;5055019;28;20044;-64
2022/05/16 02:27:43;;;;;;;8.77;5.25;;;11.90;99.90;;;;;;5054989;28;20036;-64
2022/05/16 02:30:10;;;;;;;10.60;4.60;;;12.20;99.90;;;;;;5072920;28;20047;-64
2022/05/16 02:32:36;;;;;;;7.65;4.40;;;12.20;99.90;;;;;;5073082;28;20040;-64
2022/05/16 02:35:02;;;;;;;8.93;4.80;;;12.10;99.90;;;;;;5054298;28;20046;-64
2022/05/16 02:37:28;;;;;;;9.75;4.80;;;12.20;99.90;;;;;;5072858;28;20115;-64
2022/05/16 02:39:53;;;;;;;10.43;4.20;;;11.90;99.90;;;;;;5054891;28;20097;-64
2022/05/16 02:42:19;;;;;;;11.57;5.03;;;11.90;99.90;;;;;;5037740;28;20044;-64
2022/05/16 02:44:45;;;;;;;9.98;3.95;;;12.00;99.90;;;;;;5073085;28;20128;-64
2022/05/16 02:47:18;;;;;;;8.93;4.28;;;11.90;99.90;;;;;;5053634;28;20040;-64
2022/05/16 02:49:44;;;;;;;7.43;4.40;;;12.10;99.90;;;;;;5055125;28;20164;-64
2022/05/16 02:52:10;;;;;;;8.93;4.10;;;12.00;99.90;;;;;;5072303;28;20048;-64
2022/05/16 02:54:36;;;;;;;9.18;5.13;;;11.80;99.90;;;;;;5072231;28;20044;-63
2022/05/16 02:57:03;;;;;;;9.35;5.03;;;11.90;99.90;;;;;;5072534;28;20397;-64
2022/05/16 02:59:32;;;;;;;8.30;4.40;;;12.00;99.90;;;;;;5054662;28;20152;-64
2022/05/16 03:02:03;;;;;;;11.43;4.38;;;11.80;99.90;;;;;;5071680;28;20044;-64
2022/05/16 03:04:29;;;;;;;7.75;4.35;;;11.90;99.90;;;;;;5054354;28;20079;-64
2022/05/16 03:06:55;;;;;;;10.10;4.72;;;12.00;99.90;;;;;;5072298;28;20121;-64
2022/05/16 03:09:21;;;;;;;8.63;3.85;;;12.40;99.90;;;;;;5053792;28;20116;-63
2022/05/16 03:11:47;;;;;;;8.77;3.55;;;11.90;99.90;;;;;;5072557;28;20058;-64
2022/05/16 03:14:13;;;;;;;8.55;3.33;;;11.90;99.90;;;;;;5054190;28;20119;-64
2022/05/16 03:16:39;;;;;;;8.93;3.88;;;11.90;99.90;;;;;;5053129;28;20405;-63
2022/05/16 03:19:05;;;;;;;8.23;3.78;;;11.80;99.90;;;;;;5071957;28;20043;-63
2022/05/16 03:21:31;;;;;;;6.90;4.00;;;11.80;99.90;;;;;;5037688;28;20124;-64
2022/05/16 03:23:57;;;;;;;7.68;3.78;;;11.80;99.90;;;;;;5053495;28;20115;-63
2022/05/16 03:26:24;;;;;;;6.78;3.40;;;11.80;99.90;;;;;;5037703;28;20068;-64
2022/05/16 03:28:49;;;;;;;8.70;3.05;;;11.80;99.90;;;;;;5054212;28;20577;-64
2022/05/16 03:31:15;;;;;;;14.90;4.93;;;11.80;99.90;;;;;;5053349;28;20119;-64
2022/05/16 03:33:41;;;;;;;8.35;3.30;;;11.80;99.90;;;;;;5054360;28;20042;-63
2022/05/16 03:36:07;;;;;;;6.50;3.22;;;11.70;99.90;;;;;;5037118;28;20036;-64
2022/05/16 03:41:17;;;;;;;8.35;3.65;;;11.70;99.90;;;;;;5053925;28;20080;-64
2022/05/16 03:43:43;;;;;;;6.90;3.17;;;11.80;99.90;;;;;;5071368;28;20028;-64
2022/05/16 03:46:08;;;;;;;8.68;3.92;;;11.80;99.90;;;;;;5071618;28;20040;-64
2022/05/16 03:48:35;;;;;;;8.25;4.10;;;11.80;99.90;;;;;;5072105;28;20039;-64
2022/05/16 03:51:02;;;;;;;7.72;3.28;;;11.50;99.90;;;;;;5071255;28;20036;-64
2022/05/16 03:53:28;;;;;;;6.97;2.88;;;11.80;99.90;;;;;;5071994;28;20393;-64
2022/05/16 03:55:54;;;;;;;7.18;2.92;;;11.80;99.90;;;;;;5053711;28;20044;-64
2022/05/16 03:58:20;;;;;;;8.88;3.33;;;11.80;99.90;;;;;;5053102;28;20119;-63
2022/05/16 04:00:46;;;;;;;6.97;3.05;;;11.50;99.90;;;;;;5072040;28;20454;-64
2022/05/16 04:03:12;;;;;;;6.45;2.92;;;11.80;99.90;;;;;;5053343;28;20129;-64
2022/05/16 04:05:38;;;;;;;5.30;2.83;;;11.80;99.90;;;;;;5071130;28;20123;-64
2022/05/16 04:08:04;;;;;;;10.68;2.97;;;11.30;99.90;;;;;;5053676;28;20044;-64
2022/05/16 04:10:30;;;;;;;8.82;3.30;;;11.70;99.90;;;;;;5071732;28;20044;-64
2022/05/16 04:12:55;;;;;;;7.35;3.35;;;11.70;99.90;;;;;;5052845;28;20036;-63
2022/05/16 04:15:22;;;;;;;6.45;2.72;;;11.70;99.90;;;;;;5053685;28;20084;-64
2022/05/16 04:17:49;;;;;;;5.90;3.28;;;11.80;99.90;;;;;;5071748;28;20097;-63
2022/05/16 04:20:15;;;;;;;8.32;3.30;;;11.80;99.90;;;;;;5036260;28;20473;-64
2022/05/16 04:22:42;;;;;;;7.25;3.10;;;11.80;99.90;;;;;;5072070;28;20040;-64
2022/05/16 04:25:10;;;;;;;9.05;3.45;;;11.80;99.90;;;;;;5053061;28;20044;-63
2022/05/16 04:27:35;;;;;;;5.47;3.00;;;11.80;99.90;;;;;;5055105;28;20040;-64
2022/05/16 04:30:02;;;;;;;5.10;2.60;;;11.90;99.90;;;;;;5075340;28;20040;-64
2022/05/16 04:32:28;;;;;;;5.35;2.90;;;11.90;99.90;;;;;;5075268;28;20048;-63
2022/05/16 04:34:53;;;;;;;6.70;2.72;;;11.70;99.90;;;;;;5074831;28;20043;-64
2022/05/16 04:37:19;;;;;;;10.80;3.00;;;12.00;99.90;;;;;;5075154;28;20101;-64
2022/05/16 04:39:44;;;;;;;5.53;3.30;;;12.00;99.90;;;;;;5074571;28;20043;-64
2022/05/16 04:44:54;;;;;;;5.50;2.65;;;12.10;99.90;;;;;;5074997;28;20107;-64
2022/05/16 04:47:20;;;;;;;6.82;2.90;;;12.10;99.90;;;;;;5074274;28;20035;-64
2022/05/16 04:49:46;;;;;;;8.57;2.88;;;12.10;99.90;;;;;;5057450;28;20044;-63
2022/05/16 04:52:11;;;;;;;6.63;3.08;;;12.10;99.90;;;;;;5074609;28;20115;-64
2022/05/16 04:54:40;;;;;;;6.40;2.83;;;12.10;99.90;;;;;;5056431;28;20055;-64
2022/05/16 04:57:07;;;;;;;7.10;2.63;;;12.20;99.90;;;;;;5074331;28;20119;-64
2022/05/16 04:59:32;;;;;;;6.97;3.08;;;12.20;99.90;;;;;;5075246;28;20066;-64
2022/05/16 05:01:58;;;;;;;7.95;2.80;;;12.20;99.90;;;;;;5073873;28;20041;-63
2022/05/16 05:04:25;;;;;;;5.97;2.88;;;11.90;99.90;;;;;;5056971;28;20155;-64
2022/05/16 05:06:50;;;;;;;7.03;3.35;;;12.30;99.90;;;;;;5074762;28;20107;-64
2022/05/16 05:09:17;;;;;;;10.68;3.65;;;11.90;99.90;;;;;;5073855;28;20135;-64
2022/05/16 05:14:32;;;;;;;7.30;3.03;;;12.00;99.90;;;;;;5056459;28;20049;-64
2022/05/16 05:16:58;;;;;;;10.85;3.10;;;13.10;99.90;;;;;;5073851;28;20068;-64
2022/05/16 05:19:24;;;;;;;5.45;2.22;;;12.80;99.90;;;;;;5074505;28;20397;-64
2022/05/16 05:21:50;;;;;;;7.45;3.35;;;;;;;;;;5055498;28;20061;-64
2022/05/16 05:24:16;;;;;;;5.82;2.80;;;13.30;99.90;;;;;;5074393;28;20044;-64
2022/05/16 05:26:47;;;;;;;6.35;2.42;;;14.20;99.90;;;;;;5074587;28;20037;-64
2022/05/16 05:29:13;;;;;;;6.53;2.85;;;;;;;;;;5055492;28;20029;-64
2022/05/16 05:31:41;;;;;;;7.80;2.40;;;;;;;;;;5074666;28;20040;-64
2022/05/16 05:34:08;;;;;;;7.40;2.65;;;;;;;;;;5073865;28;20489;-64
2022/05/16 05:36:35;;;;;;;6.60;3.17;;;;;;;;;;5055966;28;20124;-64
2022/05/16 05:39:01;;;;;;;7.28;2.65;;;;;;;;;;5055112;28;20393;-64
2022/05/16 05:41:27;;;;;;;7.20;2.92;;;;;;;;;;5073962;28;20036;-63
2022/05/16 05:43:53;;;;;;;6.88;2.80;;;;;;;;;;5055156;28;20040;-64
2022/05/16 05:46:19;;;;;;;9.75;4.13;;;;;;;;;;5039246;28;20097;-63
2022/05/16 05:48:46;;;;;;;8.00;3.00;;;;;;;;;;5074208;28;20041;-63
2022/05/16 05:51:13;;;;;;;6.97;3.08;;;;;;;;;;5072822;28;20036;-63
2022/05/16 05:53:41;;;;;;;9.45;2.97;;;;;;;;;;5073965;28;20072;-64
2022/05/16 05:56:07;;;;;;;10.00;2.83;;;;;;;;;;5073474;28;20123;-63
2022/05/16 05:58:34;;;;;;;6.93;2.80;;;;;;;;;;5055581;28;20048;-63
2022/05/16 06:01:00;;;;;;;7.50;2.80;;;;;;;;;;5073797;28;20410;-64
2022/05/16 06:03:26;;;;;;;11.43;2.67;;;;;;;;;;5055542;28;20405;-64
2022/05/16 06:05:53;;;;;;;7.80;2.95;;;;;;;;;;5072540;28;20044;-64
2022/05/16 06:08:19;;;;;;;10.32;2.85;;;;;;;;;;5073681;28;20428;-64
2022/05/16 06:10:45;;;;;;;6.63;2.63;;;;;;;;;;5064846;28;20041;-64
2022/05/16 06:13:11;;;;;;;7.18;3.15;;;;;;;;;;5066265;28;20457;-64
2022/05/16 06:15:37;;;;;;;6.57;2.25;;;;;;;;;;5073808;28;20040;-62
2022/05/16 06:18:03;;;;;;;7.70;3.40;;;;;;;;;;5072393;28;20083;-62
2022/05/16 06:20:30;;;;;;;9.77;3.00;;;;;;;;;;5073085;28;20047;-63
2022/05/16 06:22:56;;;;;;;6.70;3.03;;;;;;;;;;5072352;28;20374;-63
2022/05/16 06:25:31;;;;;;;8.85;3.33;;;;;;;;;;5072103;28;20156;-63
2022/05/16 06:28:07;;;;;;;6.25;2.47;;;15.30;99.90;;;;;;5073213;28;20037;-63
2022/05/16 06:30:34;;;;;;;4.70;2.47;;;;;;;;;;5055657;28;20440;-63
2022/05/16 06:33:00;;;;;;;9.05;2.80;;;;;;;;;;5070823;28;20043;-63
2022/05/16 06:35:26;;;;;;;6.68;2.85;;;;;;;;;;5048312;28;20156;-63
2022/05/16 06:37:53;;;;;;;7.40;3.15;;;;;;;;;;5050330;28;20073;-63
2022/05/16 06:40:20;;;;;;;8.00;3.33;;;15.70;99.90;;;;;;5053214;28;20055;-63
2022/05/16 06:42:46;;;;;;;8.05;3.45;;;;;;;;;;5052393;28;20051;-63
2022/05/16 06:45:13;;;;;;;9.57;2.90;;;15.80;99.90;;;;;;5069163;28;20047;-63
2022/05/16 06:47:39;;;;;;;5.25;2.60;;;;;;;;;;5050960;28;20058;-63
2022/05/16 06:50:06;;;;;;;6.78;3.00;;;;;;;;;;5051209;28;20121;-63
2022/05/16 06:52:32;;;;;;;6.55;2.80;;;;;;;;;;5069882;28;20111;-63
2022/05/16 06:54:58;;;;;;;6.88;2.65;;;;;;;;;;5058647;28;20037;-63
2022/05/16 06:57:24;;;;;;;9.02;3.08;;;;;;;;;;5045343;28;20489;-63
2022/05/16 06:59:50;;;;;;;8.60;2.88;;;;;;;;;;5049306;28;20460;-64
2022/05/16 07:02:16;;;;;;;8.10;3.22;;;;;;;;;;5064153;28;20048;-63
2022/05/16 07:04:42;;;;;;;7.28;2.80;;;;;;;;;;5055543;28;20101;-63
2022/05/16 07:07:08;;;;;;;9.73;3.97;;;;;;;;;;5050786;28;20124;-63
2022/05/16 07:09:38;;;;;;;9.73;3.50;;;16.60;99.90;;;;;;5053675;28;20045;-63
2022/05/16 07:12:05;;;;;;;7.38;3.25;;;;;;;;;;5063344;28;20105;-63
2022/05/16 07:14:31;;;;;;;10.23;3.63;;;;;;;;;;5044335;28;20501;-64
2022/05/16 07:16:57;;;;;;;8.10;3.20;;;;;;;;;;5066431;28;20086;-63
2022/05/16 07:19:23;;;;;;;7.65;3.45;;;;;;;;;;5050883;28;20488;-63
2022/05/16 07:21:49;;;;;;;10.15;3.13;;;;;;;;;;5033308;28;20060;-64
2022/05/16 07:24:15;;;;;;;7.38;3.08;;;17.30;99.90;;;;;;5058571;28;20057;-63
2022/05/16 07:29:26;;;;;;;11.20;4.88;;;;;;;;;;5054515;28;20106;-63
2022/05/16 07:31:52;;;;;;;8.35;2.80;;;;;;;;;;5051552;28;20048;-63
2022/05/16 07:34:18;;;;;;;10.43;3.50;;;;;;;;;;5057588;28;20053;-63
2022/05/16 07:36:44;;;;;;;7.93;3.92;;;;;;;;;;5046267;28;20045;-63
2022/05/16 07:39:10;;;;;;;7.07;3.00;;;;;;;;;;5053987;28;20079;-63
2022/05/16 07:41:38;;;;;;;8.38;3.45;;;;;;;;;;5051767;28;20075;-63
2022/05/16 07:44:04;;;;;;;10.70;3.65;;;;;;;;;;5068698;28;20695;-63
2022/05/16 07:46:29;;;;;;;7.65;3.38;;;17.80;99.90;;;;;;5051070;28;20045;-62
2022/05/16 07:48:55;;;;;;;12.02;3.70;;;;;;;;;;5069266;28;20032;-64
2022/05/16 07:51:21;;;;;;;9.98;3.25;;;;;;;;;;5068725;28;20036;-63
2022/05/16 07:53:47;;;;;;;7.53;3.45;;;18.00;99.90;;;;;;5051911;28;20036;-63
2022/05/16 07:56:13;;;;;;;9.23;3.95;;;;;;;;;;5051876;28;20044;-63
2022/05/16 07:58:39;;;;;;;9.77;3.65;;;;;;;;;;5068300;28;20052;-63
2022/05/16 08:01:04;;;;;;;10.32;3.13;;;18.40;99.90;;;;;;5069007;28;20040;-63
2022/05/16 08:03:31;;;;;;;5.32;2.80;;;18.40;99.90;;;;;;5073290;28;20048;-63
2022/05/16 08:05:58;;;;;;;8.57;3.33;;;18.50;99.90;;;;;;5071601;28;20036;-63
2022/05/16 08:11:12;;;;;;;7.95;3.15;;;;;;;;;;5043145;28;20280;-64
2022/05/16 08:13:39;;;;;;;7.90;3.22;;;;;;;;;;5049841;28;20086;-64
2022/05/16 08:16:05;;;;;;;7.68;3.15;;;;;;;;;;5071925;28;20071;-63
2022/05/16 08:18:31;;;;;;;6.85;3.08;;;;;;;;;;5061028;28;20052;-64
2022/05/16 08:20:57;;;;;;;9.40;3.45;;;;;;;;;;5064917;28;20048;-64
2022/05/16 08:23:28;;;;;;;7.22;3.28;;;;;;;;;;5050689;28;20048;-63
2022/05/16 08:25:55;;;;;;;8.80;3.38;;;19.40;99.90;;;;;;5045850;28;20496;-64
2022/05/16 08:28:22;;;;;;;12.65;3.97;;;19.40;99.90;;;;;;5054513;28;20069;-63
2022/05/16 08:30:48;;;;;;;7.20;3.15;;;19.50;99.90;;;;;;5032031;28;20045;-64
2022/05/16 08:33:15;;;;;;;7.70;3.45;;;19.40;99.90;;;;;;5050215;28;20041;-63
2022/05/16 08:35:40;;;;;;;19.48;3.97;;;19.40;99.90;;;;;;5052978;28;20053;-64
2022/05/16 08:41:04;;;;;;;9.13;3.30;;;19.60;99.90;;;;;;5067761;28;20052;-63
2022/05/16 08:43:47;;;;;;;9.65;4.03;;;;;;;;;;5058389;28;20121;-64
2022/05/16 08:46:35;;;;;;;9.38;3.15;;;19.90;99.90;;;;;;5071506;28;20127;-64
2022/05/16 08:49:13;;;;;;;7.43;3.38;;;20.00;99.90;;;;;;5036985;28;20482;-63
2022/05/16 08:51:39;;;;;;;9.32;3.72;;;20.10;99.90;;;;;;5040380;28;20048;-65
2022/05/16 08:54:11;;;;;;;7.70;3.30;;;20.10;99.90;;;;;;5038932;28;20039;-65
2022/05/16 08:56:41;;;;;;;8.68;3.33;;;20.20;99.90;;;;;;5056657;28;20047;-69
2022/05/16 08:59:13;;;;;;;9.75;3.38;;;20.20;99.90;;;;;;5074077;28;20101;-67
2022/05/16 09:01:52;;;;;;;8.27;3.00;;;20.10;99.90;;;;;;5055885;28;20393;-68
2022/05/16 09:04:36;;;;;;;7.15;3.00;;;20.10;99.90;;;;;;5062214;28;20118;-66
2022/05/16 09:07:26;;;;;;;13.88;3.67;;;20.10;99.90;;;;;;5073726;28;20393;-67
2022/05/16 09:09:55;;;;;;;8.60;3.22;;;20.30;99.90;;;;;;5066305;28;20047;-66
2022/05/16 09:12:29;;;;;;;8.77;3.63;;;20.30;99.90;;;;;;5074654;28;20040;-66
2022/05/16 09:15:04;;;;;;;9.02;3.45;;;;;;;;;;5055947;28;20489;-66
2022/05/16 09:17:45;;;;;;;9.25;3.65;;;20.50;99.90;;;;;;5054961;28;20040;-66
2022/05/16 09:20:23;;;;;;;7.38;3.35;;;;;;;;;;5056057;28;20072;-67
2022/05/16 09:23:05;;;;;;;11.20;4.13;;;20.90;99.90;;;;;;5055374;28;20179;-67
2022/05/16 09:25:41;;;;;;;6.28;2.88;;;21.00;99.90;;;;;;5072766;28;20877;-65
2022/05/16 09:30:57;;;;;;;7.40;3.40;;;;;;;;;;5073541;28;20041;-67
2022/05/16 09:33:25;;;;;;;9.18;2.85;;;21.60;99.90;;;;;;5065598;28;20039;-68
2022/05/16 09:36:04;;;;;;;8.50;3.05;;;21.60;99.90;;;;;;5042686;28;20382;-66
2022/05/16 09:38:29;;;;;;;7.20;3.55;;;21.60;99.50;;;;;;5067693;28;20052;-67
2022/05/16 09:41:01;;;;;;;9.50;3.47;;;21.70;99.70;;;;;;5048087;28;20492;-67
2022/05/16 09:43:34;;;;;;;7.63;3.08;;;21.90;99.90;;;;;;5051072;28;20041;-68
2022/05/16 09:46:06;;;;;;;9.55;3.92;;;21.90;99.20;;;;;;5053603;28;20049;-67
2022/05/16 09:48:32;;;;;;;12.02;4.07;;;;;;;;;;5056174;28;20044;-68
2022/05/16 09:50:59;;;;;;;10.77;4.50;;;;;;;;;;5055299;28;20048;-67
2022/05/16 09:53:41;;;;;;;9.13;3.15;;;22.30;99.90;;;;;;5039763;28;20362;-67
2022/05/16 09:56:19;;;;;;;8.60;3.22;;;22.40;99.90;;;;;;5054364;28;20127;-67
2022/05/16 09:59:04;;;;;;;14.65;4.25;;;;;;;;;;5059649;28;20048;-67
2022/05/16 10:01:44;;;;;;;9.10;3.60;;;;;;;;;;5055765;28;20052;-67
2022/05/16 10:04:18;;;;;;;7.97;3.33;;;;;;;;;;5067248;28;20040;-67
2022/05/16 10:07:01;;;;;;;8.30;3.65;;;22.50;95.20;;;;;;5055455;28;20044;-68
2022/05/16 10:09:38;;;;;;;8.75;2.97;;;;;;;;;;5055202;28;20098;-67
2022/05/16 10:12:07;;;;;;;8.82;3.35;;;;;;;;;;5055056;28;20052;-67
2022/05/16 10:14:36;;;;;;;11.52;3.40;;;22.30;94.90;;;;;;5043054;28;20539;-67
2022/05/16 10:17:03;;;;;;;7.88;3.70;;;22.30;94.90;;;;;;5053752;28;20101;-67
2022/05/16 10:19:31;;;;;;;8.77;3.10;;;22.30;95.10;;;;;;5070309;28;20704;-67
2022/05/16 10:22:03;;;;;;;7.43;3.08;;;22.40;95.40;;;;;;5052435;28;20064;-67
2022/05/16 10:24:31;;;;;;;8.45;3.70;;;22.40;94.40;;;;;;5051256;28;20057;-67
2022/05/16 10:27:04;;;;;;;11.80;3.75;;;;;;;;;;5070752;28;20047;-67
2022/05/16 10:29:34;;;;;;;12.63;3.53;;;22.60;94.70;;;;;;5070440;28;20048;-67
2022/05/16 10:35:07;;;;;;;8.88;3.40;;;22.70;94.30;;;;;;5070748;28;20091;-67
2022/05/16 10:37:36;;;;;;;9.63;3.40;;;22.80;94.40;;;;;;5055130;28;20552;-67
2022/05/16 10:40:08;;;;;;;17.73;4.43;;;22.80;94.60;;;;;;5052670;28;20048;-68
2022/05/16 10:42:45;;;;;;;8.55;3.00;;;22.90;96.30;;;;;;5054547;28;20072;-67
2022/05/16 10:45:18;;;;;;;10.00;3.80;;;22.80;95.50;;;;;;5053805;28;20067;-66
2022/05/16 10:48:01;;;;;;;7.38;3.78;;;22.70;96.50;;;;;;5053837;28;20043;-67
2022/05/16 10:50:31;;;;;;;9.95;3.50;;;22.60;94.60;;;;;;5053682;28;20036;-63
2022/05/16 10:53:35;;;;;;;10.35;3.42;;;22.60;96.10;;;;;;5054183;28;20076;-64
2022/05/16 10:56:11;;;;;;;10.27;3.35;;;22.60;97.30;;;;;;4971477;28;20073;-65
2022/05/16 10:58:58;;;;;;;8.35;3.15;;;22.70;96.20;;;;;;5059126;28;20049;-64
2022/05/16 11:01:51;;;;;;;8.35;3.40;;;22.70;96.60;;;;;;5053697;28;20035;-64
2022/05/16 11:04:38;;;;;;;7.63;3.30;;;22.80;99.90;;;;;;5053512;28;20040;-64
2022/05/16 11:07:33;;;;;;;8.80;3.83;;;22.80;99.90;;;;;;5070963;28;20036;-64
2022/05/16 11:10:28;;;;;;;8.90;3.83;;;22.80;95.00;;;;;;5042949;28;20048;-65
2022/05/16 11:13:16;;;;;;;8.48;4.13;;;22.90;94.60;;;;;;5053058;28;20044;-64
2022/05/16 11:15:50;;;;;;;8.80;4.03;;;23.00;99.90;;;;;;5040503;28;20052;-64
2022/05/16 11:18:43;;;;;;;10.45;3.97;;;23.10;93.40;;;;;;5053601;28;20040;-64
2022/05/16 11:21:12;;;;;;;11.70;4.38;;;23.30;93.70;;;;;;5071357;28;20060;-64
2022/05/16 11:23:56;;;;;;;9.77;3.58;;;23.50;93.70;;;;;;5072300;28;20409;-64
2022/05/16 11:26:43;;;;;;;11.20;4.00;;;24.00;99.90;;;;;;5059339;28;20127;-65
2022/05/16 11:29:23;;;;;;;7.93;3.63;;;24.10;99.80;;;;;;5036954;28;20583;-64
2022/05/16 11:32:04;;;;;;;10.20;3.95;;;24.20;99.90;;;;;;5053622;28;20615;-64
2022/05/16 11:34:52;;;;;;;9.55;3.90;;;24.30;90.60;;;;;;5052699;28;20170;-64
2022/05/16 11:37:21;;;;;;;6.97;3.40;;;24.30;90.60;;;;;;5070694;28;20732;-64
2022/05/16 11:40:34;;;;;;;9.13;3.80;;;24.30;90.90;;;;;;5072468;28;20181;-64
2022/05/16 11:43:20;;;;;;;9.63;4.38;;;24.30;91.30;;;;;;5032906;28;20052;-65
2022/05/16 11:46:04;;;;;;;11.00;4.63;;;24.30;99.90;;;;;;5072146;28;20075;-65
2022/05/16 11:48:54;;;;;;;9.68;3.80;;;24.30;99.90;;;;;;5071341;28;20086;-64
2022/05/16 11:51:28;;;;;;;7.38;3.53;;;;;;;;;;5071852;28;20173;-66
2022/05/16 11:53:59;;;;;;;8.95;3.65;;;24.30;99.90;;;;;;5071698;28;20177;-66
2022/05/16 12:02:10;;;;;;;10.90;3.97;;;;;;;;;;5070903;28;20132;-66
2022/05/16 12:04:36;;;;;;;11.95;4.65;;;;;;;;;;5071202;28;20044;-67
2022/05/16 12:07:13;;;;;;;15.38;5.55;;;;;;;;;;5053752;28;20385;-66
2022/05/16 12:09:54;;;;;;;8.05;4.38;;;24.70;99.90;;;;;;5072018;28;20389;-66
2022/05/16 12:12:38;;;;;;;10.55;4.60;;;24.90;99.90;;;;;;5071448;28;20040;-65
2022/05/16 12:15:16;;;;;;;13.63;4.80;;;24.80;95.40;;;;;;5071183;28;20035;-64
2022/05/16 12:17:57;;;;;;;8.73;4.38;;;24.70;94.80;;;;;;5053542;28;20481;-65
2022/05/16 12:20:57;;;;;;;12.20;4.68;;;24.70;97.60;;;;;;5071345;28;20044;-67
2022/05/16 12:24:03;;;;;;;9.32;4.05;;;24.30;91.10;;;;;;5053622;28;20131;-69
2022/05/16 12:26:31;;;;;;;10.30;4.40;;;24.10;92.10;;;;;;4948519;29;20058;-78
2022/05/16 12:29:09;;;;;;;21.33;5.55;;;23.90;95.10;;;;;;5028743;28;20056;-78
2022/05/16 12:31:50;;;;;;;12.88;5.25;;;23.70;92.70;;;;;;5052722;28;20044;-76
2022/05/16 12:34:33;;;;;;;12.77;5.80;;;23.60;93.20;;;;;;5071500;28;20095;-74
2022/05/16 12:37:14;;;;;;;9.48;4.47;;;23.50;93.60;;;;;;5053581;28;20043;-74
2022/05/16 12:40:13;;;;;;;11.23;5.80;;;23.40;94.20;;;;;;5053235;28;20048;-74
2022/05/16 12:43:10;;;;;;;16.65;6.10;;;23.40;95.10;;;;;;5048488;28;20059;-74
2022/05/16 12:46:16;;;;;;;13.07;6.00;;;23.50;96.40;;;;;;5035677;28;20048;-71
2022/05/16 12:49:12;;;;;;;13.50;5.60;;;23.70;97.00;;;;;;5056337;28;20039;-69
2022/05/16 12:52:01;;;;;;;12.50;5.93;;;23.90;97.20;;;;;;5040976;28;20119;-69
2022/05/16 12:54:35;;;;;;;16.00;6.70;;;24.00;95.50;;;;;;5074796;28;20163;-69
2022/05/16 12:57:18;;;;;;;11.85;6.22;;;24.00;95.40;;;;;;5075196;28;20036;-67
2022/05/16 13:00:11;;;;;;;12.13;6.90;;;24.00;95.40;;;;;;5039994;28;20045;-67
2022/05/16 13:03:02;;;;;;;12.95;6.97;;;23.90;95.70;;;;;;5057173;28;20036;-67
2022/05/16 13:05:34;;;;;;;16.13;7.35;;;24.00;95.50;;;;;;5074882;28;20389;-67
2022/05/16 13:08:32;;;;;;;16.92;7.10;;;23.90;94.30;;;;;;5056381;28;20401;-67
2022/05/16 13:11:34;;;;;;;12.98;7.18;;;23.80;94.90;;;;;;5073059;28;20036;-66
2022/05/16 13:14:06;;;;;;;12.82;8.18;;;23.80;94.80;;;;;;5073122;28;20060;-68
2022/05/16 13:16:37;;;;;;;16.38;7.53;;;23.90;95.10;;;;;;5056246;28;20389;-68
2022/05/16 13:19:12;;;;;;;10.45;6.65;;;23.90;95.00;;;;;;5052234;28;20037;-67
2022/05/16 13:21:53;;;;;;;11.73;6.80;;;24.10;94.60;;;;;;5072557;28;20675;-66
2022/05/16 13:24:23;;;;;;;12.93;8.85;;;24.30;93.80;;;;;;5073822;28;20052;-73
2022/05/16 13:29:38;;;;;;;12.48;8.02;;;24.60;92.70;;;;;;5058534;28;20120;-72
2022/05/16 13:32:13;;;;;;;12.48;9.43;;;24.70;93.70;;;;;;5041353;28;20425;-72
2022/05/16 13:34:44;;;;;;;14.80;10.10;;;24.80;93.30;;;;;;5065275;28;20508;-73
2022/05/16 13:37:11;;;;;;;18.08;11.80;;;24.90;93.40;;;;;;5041401;28;20040;-67
2022/05/16 13:39:40;;;;;;;14.13;10.43;;;25.00;93.30;;;;;;5046853;28;20036;-68
2022/05/16 13:42:06;;;;;;;19.73;11.80;;;25.10;93.60;;;;;;5043010;28;20074;-69
2022/05/16 13:44:37;;;;;;;19.63;11.20;;;25.10;93.60;;;;;;5058732;28;20044;-69
2022/05/16 13:47:05;;;;;;;13.10;10.88;;;25.30;93.50;;;;;;5051244;28;20047;-68
2022/05/16 13:49:32;;;;;;;18.85;11.88;;;25.50;92.60;;;;;;5060586;28;20044;-68
2022/05/16 13:52:01;;;;;;;15.82;11.80;;;25.50;92.30;;;;;;5051369;28;20052;-68
2022/05/16 13:54:30;;;;;;;16.70;10.57;;;25.20;92.40;;;;;;5056064;28;20075;-69
2022/05/16 13:57:05;;;;;;;13.48;10.88;;;25.20;93.50;;;;;;5066362;28;20036;-66
2022/05/16 13:59:33;;;;;;;15.85;10.88;;;25.30;93.20;;;;;;5064580;28;20037;-65
2022/05/16 14:02:08;;;;;;;15.18;11.13;;;25.40;93.70;;;;;;5028094;28;20258;-67
2022/05/16 14:04:49;;;;;;;17.50;10.27;;;25.50;93.40;;;;;;5040582;28;20446;-68